Time;durP1;ratioP1;P1;durP2;ratioP2;P2;SDS_P1;SDS_P2;PMS_P1;PMS_P2;Temp;Humidity;BMP_temperature;BMP_pressure;BME280_temperature;BME280_humidity;BME280_pressure;Samples;Min_cycle;Max_cycle;Signal;HPM_P1;HPM_P2
2023/03/30 00:01:47;;;;;;;17.33;7.28;;;;;;;1.63;81.49;97836.47;4959432;28;20018;-79
2023/03/30 00:04:12;;;;;;;15.25;5.47;;;;;;;1.53;81.10;97827.06;4975424;28;20055;-78
2023/03/30 00:06:41;;;;;;;12.02;4.97;;;;;;;1.49;82.18;97835.91;4975288;28;20034;-79
2023/03/30 00:09:06;;;;;;;12.18;5.20;;;;;;;1.51;82.73;97841.13;4959377;28;20541;-80
2023/03/30 00:11:33;;;;;;;14.35;6.00;;;;;;;1.34;83.81;97836.25;4975207;28;20113;-79
2023/03/30 00:13:59;;;;;;;17.45;5.97;;;;;;;1.27;84.82;97832.00;4958824;28;20033;-79
2023/03/30 00:16:25;;;;;;;15.80;6.05;;;;;;;1.23;85.22;97845.28;4971085;28;20041;-81
2023/03/30 00:18:50;;;;;;;12.45;5.15;;;;;;;1.22;86.03;97839.13;4974046;28;20026;-79
2023/03/30 00:21:16;;;;;;;17.35;5.95;;;;;;;1.24;86.33;97839.97;4974942;28;20033;-81
2023/03/30 00:23:45;;;;;;;11.43;3.92;;;;;;;1.36;84.36;97847.59;4959130;28;20541;-80
2023/03/30 00:26:12;;;;;;;16.88;5.78;;;;;;;1.37;85.54;97841.44;4958810;28;20113;-80
2023/03/30 00:28:37;;;;;;;11.30;6.03;;;;;;;1.19;89.53;97838.31;4975027;28;20092;-79
2023/03/30 00:31:03;;;;;;;16.10;5.57;;;;;;;1.15;90.35;97844.53;4958489;28;20038;-79
2023/03/30 00:33:29;;;;;;;15.88;6.10;;;;;;;1.09;90.64;97843.78;4974944;28;20150;-80
2023/03/30 00:35:56;;;;;;;14.13;6.22;;;;;;;1.13;90.43;97841.97;4958577;28;20053;-79
2023/03/30 00:38:22;;;;;;;10.98;5.32;;;;;;;1.04;91.22;97853.53;4958578;28;20022;-79
2023/03/30 00:40:56;;;;;;;11.80;5.43;;;;;;;0.84;92.38;97839.88;4974686;28;20037;-80
2023/03/30 00:43:22;;;;;;;12.68;5.78;;;;;;;0.92;92.46;97839.75;4974556;28;20034;-79
2023/03/30 00:45:47;;;;;;;20.73;6.13;;;;;;;1.01;92.57;97850.97;4955831;28;20041;-80
2023/03/30 00:48:22;;;;;;;14.70;6.07;;;;;;;0.90;93.03;97846.78;4958730;28;20402;-80
2023/03/30 00:51:08;;;;;;;15.45;6.15;;;;;;;0.99;94.16;97859.78;4952609;28;20092;-80
2023/03/30 00:53:35;;;;;;;16.10;5.00;;;;;;;0.87;96.41;97863.50;4954733;28;20545;-80
2023/03/30 00:56:02;;;;;;;13.23;5.85;;;;;;;0.79;96.67;97865.44;4974577;28;20026;-80
2023/03/30 00:58:28;;;;;;;13.90;6.15;;;;;;;0.73;95.72;97864.66;4958670;28;20035;-81
2023/03/30 01:00:57;;;;;;;14.48;6.22;;;;;;;0.69;95.64;97857.72;4958278;28;20030;-78
2023/03/30 01:04:01;;;;;;;16.70;6.40;;;;;;;0.68;95.32;97863.91;4958411;28;20096;-80
2023/03/30 01:06:28;;;;;;;14.20;5.65;;;;;;;0.46;96.74;97869.50;4957857;28;20034;-79
2023/03/30 01:08:55;;;;;;;14.15;5.60;;;;;;;0.46;97.98;97869.50;4958276;28;20548;-80
2023/03/30 01:11:21;;;;;;;16.63;5.82;;;;;;;0.44;99.27;97873.06;4957855;28;20026;-79
2023/03/30 01:13:49;;;;;;;10.77;5.45;;;;;;;0.52;99.77;97882.56;4958235;28;20101;-79
2023/03/30 01:16:33;;;;;;;16.33;5.22;;;;;;;0.44;100.00;97881.84;4954219;28;20509;-79
2023/03/30 01:19:28;;;;;;;15.13;5.60;;;;;;;0.42;100.00;97875.75;4974229;28;20197;-80
2023/03/30 01:22:25;;;;;;;12.77;4.97;;;;;;;0.30;100.00;97865.41;4971297;28;20026;-79
2023/03/30 01:25:20;;;;;;;11.75;5.30;;;;;;;0.45;100.00;97887.97;4991703;28;20054;-80
2023/03/30 01:28:14;;;;;;;15.00;5.05;;;;;;;0.44;100.00;97875.69;4974079;28;20026;-80
2023/03/30 01:31:17;;;;;;;12.88;5.43;;;;;;;0.49;100.00;97887.03;4957531;28;20019;-79
2023/03/30 01:34:09;;;;;;;12.50;5.00;;;;;;;0.36;100.00;97869.72;4990625;28;20512;-78
2023/03/30 01:36:59;;;;;;;16.80;4.35;;;;;;;0.42;100.00;97891.53;4974269;28;20050;-78
2023/03/30 01:39:46;;;;;;;14.38;5.53;;;;;;;0.50;100.00;97884.34;4977143;28;20031;-78
2023/03/30 01:42:17;;;;;;;21.30;8.20;;;;;;;0.56;100.00;97888.66;4977538;28;20030;-79
2023/03/30 01:44:55;;;;;;;16.30;7.40;;;;;;;0.49;100.00;97887.03;4958803;28;20024;-74
2023/03/30 01:47:33;;;;;;;15.20;6.72;;;;;;;0.46;100.00;97885.28;4976971;28;20486;-76
2023/03/30 01:50:10;;;;;;;19.98;9.18;;;;;;;0.47;100.00;97894.06;4961165;28;20104;-75
2023/03/30 01:52:59;;;;;;;16.50;7.95;;;;;;;0.58;100.00;97892.13;4977493;28;20033;-75
2023/03/30 01:55:38;;;;;;;17.25;7.18;;;;;;;0.50;100.00;97889.63;4977337;28;20042;-76
2023/03/30 01:58:11;;;;;;;17.20;7.25;;;;;;;0.45;100.00;97899.38;4977017;28;20022;-76
2023/03/30 02:00:39;;;;;;;14.73;7.05;;;;;;;0.45;100.00;97904.63;4961094;28;20026;-76
2023/03/30 02:03:18;;;;;;;15.75;6.63;;;;;;;0.44;100.00;97895.00;4977313;28;20052;-76
2023/03/30 02:05:46;;;;;;;15.52;6.85;;;;;;;0.40;100.00;97898.56;4977325;28;20030;-75
2023/03/30 02:08:17;;;;;;;23.23;6.78;;;;;;;0.38;100.00;97899.47;4977011;28;20109;-75
2023/03/30 02:10:44;;;;;;;15.20;6.70;;;;;;;0.37;100.00;97908.28;4968107;28;20023;-75
2023/03/30 02:13:11;;;;;;;22.83;8.05;;;;;;;0.22;100.00;97890.09;4960691;28;20089;-75
2023/03/30 02:15:40;;;;;;;21.45;8.73;;;;;;;0.20;100.00;97899.78;4960791;28;20031;-76
2023/03/30 02:18:06;;;;;;;19.55;9.13;;;;;;;0.20;100.00;97886.63;4976577;28;20033;-76
2023/03/30 02:20:33;;;;;;;19.48;7.65;;;;;;;0.18;100.00;97886.66;4975172;28;20034;-76
2023/03/30 02:23:00;;;;;;;19.60;6.75;;;;;;;0.16;100.00;97888.44;4976903;28;20025;-75
2023/03/30 02:25:26;;;;;;;12.95;6.43;;;;;;;0.07;100.00;97885.94;4960658;28;20413;-75
2023/03/30 02:27:52;;;;;;;15.38;6.57;;;;;;;0.20;100.00;97895.38;4960685;28;20030;-75
2023/03/30 02:30:18;;;;;;;13.70;6.40;;;;;;;0.17;100.00;97894.56;4993930;28;20041;-76
2023/03/30 02:32:47;;;;;;;11.80;5.20;;;;;;;0.08;100.00;97885.06;4976468;28;20035;-75
2023/03/30 02:35:31;;;;;;;13.95;5.07;;;;;;;0.09;100.00;97897.31;4976114;28;20580;-75
2023/03/30 02:38:34;;;;;;;7.38;4.43;;;;;;;0.11;100.00;97887.63;4976550;28;20478;-74
2023/03/30 02:41:18;;;;;;;;;;;;;;;0.19;100.00;97892.75;4976399;28;20113;-75
2023/03/30 02:43:58;;;;;;;9.45;4.25;;;;;;;0.06;100.00;97907.88;4993859;28;19982;-75
2023/03/30 02:46:27;;;;;;;8.38;4.38;;;;;;;0.00;100.00;97910.63;4976127;28;20507;-75
2023/03/30 02:48:52;;;;;;;23.10;4.68;;;;;;;-0.11;100.00;97907.25;4976368;28;20038;-75
2023/03/30 02:51:46;;;;;;;9.73;4.85;;;;;;;-0.12;100.00;97901.13;4993554;28;20034;-76
2023/03/30 02:54:20;;;;;;;9.30;4.70;;;;;;;-0.19;100.00;97911.75;4976052;28;20029;-75
2023/03/30 02:56:51;;;;;;;19.88;7.32;;;;;;;-0.25;100.00;97911.84;4976058;28;20026;-75
2023/03/30 02:59:20;;;;;;;20.75;7.10;;;;;;;-0.26;100.00;97916.22;4975917;28;20030;-76
2023/03/30 03:01:50;;;;;;;15.25;6.50;;;;;;;-0.24;100.00;97913.56;4976043;28;20106;-75
2023/03/30 03:04:16;;;;;;;25.67;6.53;;;;;;;-0.22;100.00;97917.94;4975911;28;20490;-76
2023/03/30 03:06:42;;;;;;;19.13;6.20;;;;;;;-0.20;100.00;97931.03;4975766;28;20041;-75
2023/03/30 03:09:08;;;;;;;13.65;5.28;;;;;;;-0.14;100.00;97930.94;4960303;28;20030;-75
2023/03/30 03:11:33;;;;;;;13.90;6.30;;;;;;;-0.05;100.00;97921.19;4975715;28;20062;-76
2023/03/30 03:13:59;;;;;;;18.35;7.90;;;;;;;0.04;100.00;97916.66;4975892;28;20494;-75
2023/03/30 03:16:25;;;;;;;21.23;8.00;;;;;;;0.08;100.00;97921.88;4975865;28;20035;-75
2023/03/30 03:18:51;;;;;;;16.00;7.40;;;;;;;0.13;100.00;97933.19;4975810;28;20046;-76
2023/03/30 03:21:17;;;;;;;18.17;8.20;;;;;;;0.05;100.00;97929.81;4959437;28;20022;-76
2023/03/30 03:23:42;;;;;;;22.98;8.85;;;;;;;0.00;100.00;97931.66;4959249;28;20022;-75
2023/03/30 03:26:08;;;;;;;23.33;8.98;;;;;;;-0.13;100.00;97928.31;4959610;28;20062;-75
2023/03/30 03:28:34;;;;;;;47.15;14.35;;;;;;;-0.12;100.00;97940.53;4975152;28;20567;-76
2023/03/30 03:31:01;;;;;;;41.25;12.65;;;;;;;-0.13;100.00;97933.56;4959248;28;20120;-75
2023/03/30 03:33:45;;;;;;;48.75;11.10;;;;;;;-0.11;100.00;97951.94;4956321;28;20031;-77
2023/03/30 03:36:11;;;;;;;20.08;8.68;;;;;;;-0.18;100.00;97947.63;4975476;28;20054;-77
2023/03/30 03:38:37;;;;;;;24.55;11.82;;;;;;;-0.27;100.00;97934.63;4959135;28;20041;-76
2023/03/30 03:41:02;;;;;;;24.88;9.32;;;;;;;-0.23;100.00;97938.97;4959036;28;20339;-76
2023/03/30 03:43:28;;;;;;;31.20;10.23;;;;;;;-0.23;100.00;97947.72;4975102;28;20045;-80
2023/03/30 03:45:54;;;;;;;28.63;9.20;;;;;;;-0.18;100.00;97948.50;4959916;28;20512;-80
2023/03/30 03:48:21;;;;;;;21.60;7.55;;;;;;;-0.23;100.00;97942.47;4975870;28;20092;-82
2023/03/30 03:50:52;;;;;;;23.42;8.70;;;;;;;-0.13;100.00;97951.09;4958024;28;20031;-80
2023/03/30 03:53:17;;;;;;;26.45;10.88;;;;;;;-0.11;100.00;97949.31;4974858;28;20100;-81
2023/03/30 03:55:43;;;;;;;31.52;12.52;;;;;;;-0.04;100.00;97950.97;4958996;28;20418;-81
2023/03/30 03:58:09;;;;;;;29.90;10.40;;;;;;;0.05;100.00;97942.94;4976242;28;20409;-82
2023/03/30 04:00:35;;;;;;;22.00;8.45;;;;;;;0.04;100.00;97951.72;4959630;28;20038;-82
2023/03/30 04:03:00;;;;;;;19.83;9.15;;;;;;;-0.11;100.00;97951.94;4975786;28;20026;-80
2023/03/30 04:05:26;;;;;;;26.17;9.20;;;;;;;-0.19;100.00;97957.31;4959326;28;20383;-79
2023/03/30 04:07:55;;;;;;;22.95;7.13;;;;;;;-0.09;100.00;97963.28;4957880;28;20030;-81
2023/03/30 04:10:21;;;;;;;17.67;6.90;;;;;;;-0.14;100.00;97941.47;4959322;28;20041;-79
2023/03/30 04:12:47;;;;;;;12.18;5.93;;;;;;;-0.05;100.00;97942.22;4958435;28;20034;-79
2023/03/30 04:15:13;;;;;;;16.45;6.65;;;;;;;-0.07;100.00;97943.13;4975184;28;20030;-79
2023/03/30 04:17:39;;;;;;;18.25;7.78;;;;;;;-0.06;100.00;97945.72;4955327;28;20038;-85
2023/03/30 04:20:10;;;;;;;24.95;7.80;;;;;;;-0.01;100.00;97957.06;4975139;28;20041;-75
2023/03/30 04:22:40;;;;;;;16.17;7.03;;;;;;;0.07;100.00;97969.22;4957406;28;20489;-76
2023/03/30 04:25:10;;;;;;;19.90;7.47;;;;;;;0.04;100.00;97962.25;4972975;28;20034;-79
2023/03/30 04:27:36;;;;;;;24.10;7.93;;;;;;;0.02;100.00;97957.91;4954297;28;20050;-81
2023/03/30 04:30:06;;;;;;;22.00;8.43;;;;;;;0.19;100.00;97964.66;4974273;28;20034;-81
2023/03/30 04:32:37;;;;;;;21.48;7.95;;;;;;;0.30;100.00;97970.63;4957740;28;20026;-80
2023/03/30 04:35:13;;;;;;;22.65;8.20;;;;;;;0.48;100.00;97964.22;4956923;28;20049;-82
2023/03/30 04:37:40;;;;;;;21.63;9.57;;;;;;;0.70;100.00;97975.28;4956009;28;20112;-79
2023/03/30 04:40:11;;;;;;;29.42;10.02;;;;;;;0.73;100.00;97983.13;4955901;28;20121;-83
2023/03/30 04:42:37;;;;;;;30.13;11.75;;;;;;;0.87;100.00;97986.38;4957282;28;20037;-78
2023/03/30 04:45:04;;;;;;;51.97;19.08;;;;;;;1.01;100.00;97989.66;4957158;28;20026;-84
2023/03/30 04:47:31;;;;;;;67.93;27.70;;;;;;;1.11;100.00;97991.22;4957193;28;20490;-80
2023/03/30 04:49:56;;;;;;;35.42;12.68;;;;;;;1.27;100.00;97982.16;4972439;28;20030;-83
2023/03/30 04:52:22;;;;;;;34.78;12.70;;;;;;;1.38;100.00;97966.16;4958131;28;20065;-78
2023/03/30 04:54:48;;;;;;;30.70;12.80;;;;;;;1.48;100.00;97989.66;4957588;28;20044;-77
2023/03/30 04:57:14;;;;;;;26.15;13.02;;;;;;;1.34;100.00;97980.28;4957548;28;20480;-77
2023/03/30 04:59:41;;;;;;;27.38;11.93;;;;;;;1.30;100.00;97974.19;4974106;28;20030;-77
2023/03/30 05:02:07;;;;;;;33.72;13.38;;;;;;;1.45;100.00;97989.72;4973902;28;20100;-77
2023/03/30 05:04:33;;;;;;;44.20;19.33;;;;;;;1.61;100.00;98001.72;4973963;28;20026;-78
2023/03/30 05:07:00;;;;;;;40.85;17.00;;;;;;;1.83;99.88;98002.16;4957568;28;20497;-77
2023/03/30 05:09:26;;;;;;;37.22;16.55;;;;;;;1.89;99.10;97990.59;4957892;28;20116;-77
2023/03/30 05:11:52;;;;;;;32.45;12.98;;;;;;;1.92;99.83;97999.34;4954392;28;20031;-77
2023/03/30 05:14:17;;;;;;;37.92;16.42;;;;;;;2.03;99.07;97999.13;4973572;28;20026;-78
2023/03/30 05:16:43;;;;;;;30.33;9.80;;;;;;;1.92;97.02;97990.53;4958196;28;20056;-78
2023/03/30 05:19:08;;;;;;;34.35;13.95;;;;;;;1.70;100.00;97999.78;4973589;28;20096;-77
2023/03/30 05:21:34;;;;;;;49.88;18.02;;;;;;;1.87;100.00;98013.53;4958145;28;20023;-77
2023/03/30 05:24:00;;;;;;;71.53;28.10;;;;;;;1.94;100.00;98018.63;4973652;28;20034;-77
2023/03/30 05:26:26;;;;;;;66.38;28.02;;;;;;;2.05;100.00;98019.28;4957445;28;20034;-77
2023/03/30 05:28:52;;;;;;;63.33;21.83;;;;;;;2.11;100.00;98015.66;4957842;28;20026;-77
2023/03/30 05:31:18;;;;;;;48.05;20.35;;;;;;;1.97;100.00;98012.44;4957548;28;20049;-78
2023/03/30 05:33:44;;;;;;;49.45;16.70;;;;;;;2.15;99.75;98012.06;4957634;28;20383;-78
2023/03/30 05:36:10;;;;;;;51.42;18.10;;;;;;;2.30;97.19;98009.09;4957431;28;20058;-77
2023/03/30 05:38:36;;;;;;;65.45;18.75;;;;;;;2.44;97.48;98017.56;4973533;28;20101;-78
2023/03/30 05:41:03;;;;;;;43.35;16.67;;;;;;;2.35;98.01;98015.13;4973714;28;20038;-77
2023/03/30 05:43:29;;;;;;;36.15;14.85;;;;;;;2.16;98.77;98016.41;4957586;28;20034;-77
2023/03/30 05:45:55;;;;;;;32.20;13.98;;;;;;;2.10;100.00;98027.09;4973596;28;20031;-77
2023/03/30 05:48:21;;;;;;;31.35;15.10;;;;;;;2.04;100.00;98049.19;4957618;28;20033;-78
2023/03/30 05:50:47;;;;;;;44.88;14.73;;;;;;;2.16;100.00;98058.63;4968589;28;20030;-78
2023/03/30 05:53:13;;;;;;;39.45;16.92;;;;;;;2.25;100.00;98053.16;4957117;28;20022;-78
2023/03/30 05:55:41;;;;;;;54.50;16.70;;;;;;;2.32;100.00;98065.31;4957302;28;20406;-78
2023/03/30 05:58:07;;;;;;;54.10;19.38;;;;;;;2.25;99.25;98042.59;4957717;28;20045;-78
2023/03/30 06:00:35;;;;;;;48.28;17.55;;;;;;;2.43;93.30;98033.44;4957100;28;20490;-79
2023/03/30 06:03:01;;;;;;;58.65;19.42;;;;;;;2.59;90.89;98033.03;4957821;28;20057;-78
2023/03/30 06:05:26;;;;;;;50.72;18.45;;;;;;;2.83;88.47;98033.41;4973450;28;20050;-78
2023/03/30 06:07:53;;;;;;;43.20;18.85;;;;;;;3.07;85.67;98035.44;4973636;28;20037;-78
2023/03/30 06:10:18;;;;;;;26.55;13.20;;;;;;;3.26;88.27;98048.16;4954414;28;20451;-78
2023/03/30 06:12:44;;;;;;;28.52;12.80;;;;;;;3.38;80.88;98025.84;4973327;28;20033;-78
2023/03/30 06:15:10;;;;;;;28.05;12.38;;;;;;;3.56;78.21;98033.28;4957345;28;20397;-79
2023/03/30 06:17:35;;;;;;;34.38;12.05;;;;;;;3.53;78.39;98036.03;4959512;28;20109;-79
2023/03/30 06:20:08;;;;;;;33.30;12.57;;;;;;;3.46;77.88;98017.69;4957649;28;20458;-77
2023/03/30 06:22:34;;;;;;;24.23;11.63;;;;;;;3.31;76.14;98026.91;4961807;28;20417;-78
2023/03/30 06:25:00;;;;;;;25.17;12.00;;;;;;;3.22;77.26;98033.28;4976811;28;20034;-78
2023/03/30 06:27:26;;;;;;;31.08;12.65;;;;;;;3.54;76.96;98043.03;4976956;28;20475;-79
2023/03/30 06:29:52;;;;;;;28.27;13.00;;;;;;;3.48;79.37;98047.59;4976790;28;20030;-77
2023/03/30 06:32:22;;;;;;;30.25;13.38;;;;;;;3.46;82.13;98058.22;4960803;28;20603;-79
2023/03/30 06:34:47;;;;;;;30.30;13.60;;;;;;;3.62;82.19;98056.94;4959936;28;20133;-78
2023/03/30 06:37:14;;;;;;;34.97;14.25;;;;;;;3.84;80.04;98076.59;4960422;28;20141;-79
2023/03/30 06:39:39;;;;;;;36.65;15.23;;;;;;;3.95;79.75;98070.16;4993661;28;20398;-78
2023/03/30 06:42:05;;;;;;;43.53;15.68;;;;;;;4.15;78.46;98081.06;4960375;28;20018;-77
2023/03/30 06:44:33;;;;;;;37.90;13.48;;;;;;;4.43;72.60;98066.09;4960373;28;20063;-77
2023/03/30 06:46:59;;;;;;;35.35;14.32;;;;;;;4.43;70.72;98057.31;4960412;28;20339;-78
2023/03/30 06:49:33;;;;;;;22.75;10.13;;;;;;;4.61;69.27;98075.31;4960278;28;20038;-78
2023/03/30 06:52:00;;;;;;;28.35;10.10;;;;;;;4.95;65.55;98067.19;4976090;28;20058;-78
2023/03/30 06:54:29;;;;;;;22.83;9.82;;;;;;;5.20;64.44;98068.16;4957378;28;20029;-77
2023/03/30 06:56:54;;;;;;;18.48;9.45;;;;;;;5.82;63.58;98095.22;4960037;28;20411;-77
2023/03/30 06:59:20;;;;;;;21.40;10.05;;;;;;;5.97;58.84;98074.34;4976580;28;20019;-79
2023/03/30 07:01:46;;;;;;;21.77;10.10;;;;;;;5.52;61.87;98075.91;4959144;28;20023;-78
2023/03/30 07:04:11;;;;;;;21.38;9.68;;;;;;;5.61;58.94;98074.72;4956847;28;20114;-78
2023/03/30 07:06:39;;;;;;;19.73;8.80;;;;;;;5.65;58.89;98074.59;4958349;28;20030;-78
2023/03/30 07:09:05;;;;;;;32.28;9.95;;;;;;;5.82;58.87;98074.88;4960090;28;20041;-78
2023/03/30 07:11:31;;;;;;;20.65;8.85;;;;;;;6.00;58.43;98092.84;4976505;28;20030;-78
2023/03/30 07:14:04;;;;;;;17.08;8.35;;;;;;;5.27;58.62;98056.41;4975805;28;20041;-78
2023/03/30 07:16:29;;;;;;;;;;;;;;;5.34;59.19;98074.75;4977138;28;20030;-77
2023/03/30 07:19:07;;;;;;;18.80;7.20;;;;;;;5.38;61.47;98060.44;4958270;28;19917;-78
2023/03/30 07:21:32;;;;;;;16.15;6.47;;;;;;;5.59;57.82;98082.75;4960829;28;20103;-78
2023/03/30 07:24:01;;;;;;;13.18;6.28;;;;;;;5.86;55.59;98078.31;4975879;28;20129;-78
2023/03/30 07:26:30;;;;;;;12.05;5.63;;;;;;;5.82;54.77;98069.56;4976412;28;20034;-78
2023/03/30 07:28:56;;;;;;;9.15;4.95;;;;;;;5.94;55.21;98074.47;4975526;28;20466;-77
2023/03/30 07:31:23;;;;;;;13.98;6.90;;;;;;;6.28;54.82;98079.44;4959472;28;20034;-79
2023/03/30 07:33:49;;;;;;;13.35;5.88;;;;;;;7.00;57.33;98118.34;4959269;28;20030;-79
2023/03/30 07:36:15;;;;;;;11.30;5.78;;;;;;;7.63;53.40;98098.06;4959270;28;20046;-78
2023/03/30 07:38:41;;;;;;;13.02;5.75;;;;;;;8.06;52.38;98097.97;4975331;28;20574;-78
2023/03/30 07:41:08;;;;;;;14.25;6.50;;;;;;;8.18;48.45;98073.47;4958819;28;20117;-77
2023/03/30 07:43:34;;;;;;;16.50;7.35;;;;;;;8.72;47.65;98074.63;4959318;28;20026;-78
2023/03/30 07:46:00;;;;;;;17.50;7.63;;;;;;;8.84;47.07;98054.53;4972102;28;20030;-79
2023/03/30 07:48:25;;;;;;;59.40;26.48;;;;;;;8.53;47.61;98057.75;4959521;28;20081;-79
2023/03/30 07:51:08;;;;;;;14.27;7.45;;;;;;;8.72;46.71;98055.97;4959104;28;20454;-79
2023/03/30 07:53:35;;;;;;;13.80;5.82;;;;;;;9.68;45.75;98081.56;4970078;28;20549;-78
2023/03/30 07:56:01;;;;;;;10.48;4.57;;;;;;;10.48;44.40;98079.22;4975140;28;20068;-79
2023/03/30 07:58:27;;;;;;;15.57;6.70;;;;;;;11.23;43.28;98085.72;4975588;28;20026;-79
2023/03/30 08:00:54;;;;;;;10.48;5.18;;;;;;;11.61;41.54;98064.81;4958971;28;20053;-79
2023/03/30 08:03:23;;;;;;;10.25;4.22;;;;;;;12.57;40.27;98061.75;4975071;28;20397;-78
2023/03/30 08:05:59;;;;;;;27.50;8.73;;;;;;;13.17;39.00;98055.25;4975572;28;20053;-78
2023/03/30 08:08:25;;;;;;;36.75;12.25;;;;;;;12.83;38.72;98035.00;4959141;28;20062;-78
2023/03/30 08:10:51;;;;;;;36.50;11.20;;;;;;;12.20;39.15;98020.22;4958726;28;20034;-79
2023/03/30 08:13:16;;;;;;;29.27;6.60;;;;;;;10.85;40.83;98001.34;4974904;28;20088;-78
2023/03/30 08:15:42;;;;;;;16.23;5.63;;;;;;;10.89;41.28;98014.47;4974918;28;20188;-78
2023/03/30 08:18:08;;;;;;;19.88;10.05;;;;;;;11.42;40.94;98030.19;4957112;28;20526;-79
2023/03/30 08:20:35;;;;;;;9.50;5.30;;;;;;;12.73;39.24;98041.06;4975238;28;20117;-80
2023/03/30 08:23:01;;;;;;;71.82;24.83;;;;;;;13.20;38.37;98030.00;4958548;28;20478;-79
2023/03/30 08:25:27;;;;;;;14.40;7.53;;;;;;;13.15;38.16;98006.13;4974949;28;20034;-78
2023/03/30 08:27:53;;;;;;;22.35;7.55;;;;;;;13.15;37.98;98006.13;4957506;28;20034;-78
2023/03/30 08:30:18;;;;;;;21.27;9.50;;;;;;;12.93;37.93;97989.66;4974736;28;20410;-78
2023/03/30 08:32:44;;;;;;;24.08;9.43;;;;;;;12.20;39.36;97978.19;4958516;28;20041;-79
2023/03/30 08:35:11;;;;;;;19.38;10.18;;;;;;;12.62;38.99;97995.22;4958447;28;20053;-79
2023/03/30 08:37:38;;;;;;;24.00;9.15;;;;;;;12.57;39.84;98002.72;4958682;28;20038;-80
2023/03/30 08:40:07;;;;;;;24.67;10.73;;;;;;;13.14;38.58;97998.16;4971506;28;20022;-78
2023/03/30 08:42:54;;;;;;;24.73;10.70;;;;;;;14.02;38.23;98018.19;4955569;28;20161;-78
2023/03/30 08:45:20;;;;;;;32.00;11.50;;;;;;;14.84;36.86;98025.00;4973606;28;20038;-79
2023/03/30 08:47:48;;;;;;;15.05;8.30;;;;;;;14.99;36.52;98013.13;4974506;28;20461;-79
2023/03/30 08:50:20;;;;;;;15.55;7.68;;;;;;;13.76;37.91;97986.81;4964477;28;20410;-78
2023/03/30 08:52:46;;;;;;;19.70;8.35;;;;;;;14.06;37.43;97989.22;4958574;28;20034;-79
2023/03/30 08:55:37;;;;;;;14.77;7.57;;;;;;;14.70;36.57;98006.28;4958180;28;20034;-79
2023/03/30 08:58:21;;;;;;;11.50;6.35;;;;;;;14.62;36.47;97998.75;4958211;28;20041;-79
2023/03/30 09:01:17;;;;;;;14.45;6.35;;;;;;;15.57;35.46;98005.22;4973940;28;20406;-78
2023/03/30 09:04:18;;;;;;;12.98;5.50;;;;;;;16.62;34.36;98006.09;4956346;28;20045;-78
2023/03/30 09:06:52;;;;;;;19.90;6.50;;;;;;;15.42;34.62;97957.81;4944280;28;20085;-78
2023/03/30 09:09:20;;;;;;;19.90;6.28;;;;;;;14.71;35.89;97951.44;4973874;28;20157;-77
2023/03/30 09:11:55;;;;;;;11.23;6.25;;;;;;;14.30;36.46;97949.00;4973684;28;20049;-77
2023/03/30 09:14:28;;;;;;;18.42;6.30;;;;;;;15.98;34.55;97976.94;4957639;28;20063;-78
2023/03/30 09:17:20;;;;;;;7.55;4.82;;;;;;;17.07;32.98;97957.47;4957938;28;20115;-79
2023/03/30 09:20:11;;;;;;;37.15;18.67;;;;;;;19.11;31.28;97979.56;4973834;28;20486;-78
2023/03/30 09:22:41;;;;;;;11.55;5.72;;;;;;;19.42;30.12;97940.56;4957918;28;20034;-78
2023/03/30 09:25:48;;;;;;;14.52;6.25;;;;;;;19.27;30.78;97931.94;4973981;28;20057;-78
2023/03/30 09:28:20;;;;;;;11.38;5.70;;;;;;;19.31;30.81;97932.53;4894138;28;20037;-77
2023/03/30 09:30:50;;;;;;;14.27;5.13;;;;;;;18.87;31.35;97902.13;4955593;28;20509;-77
2023/03/30 09:33:27;;;;;;;10.18;5.68;;;;;;;18.38;31.67;97883.06;4954762;28;20038;-76
2023/03/30 09:36:02;;;;;;;16.52;5.93;;;;;;;17.13;34.24;97892.06;4990681;28;20046;-76
2023/03/30 09:38:31;;;;;;;4.93;3.20;;;;;;;19.02;32.11;97896.31;4973925;28;20034;-76
2023/03/30 09:41:06;;;;;;;7.15;3.78;;;;;;;19.64;31.99;97906.88;4973771;28;20023;-76
2023/03/30 09:43:45;;;;;;;3.42;2.50;;;;;;;19.64;32.19;97907.72;4974177;28;20054;-77
2023/03/30 09:46:11;;;;;;;3.50;2.50;;;;;;;19.40;31.95;97877.44;4974030;28;20065;-76
2023/03/30 09:48:45;;;;;;;70.68;38.55;;;;;;;18.58;33.05;97868.63;4957467;28;20066;-78
2023/03/30 09:51:20;;;;;;;4.18;1.83;;;;;;;19.55;32.51;97886.00;4957570;28;20375;-77
2023/03/30 09:53:48;;;;;;;4.68;2.13;;;;;;;18.67;32.77;97856.97;4977160;28;20066;-77
2023/03/30 09:56:26;;;;;;;4.90;2.38;;;;;;;19.66;32.27;97873.16;4960358;28;20042;-78
2023/03/30 09:58:52;;;;;;;4.75;2.70;;;;;;;21.37;30.84;97896.38;4977257;28;20034;-76
2023/03/30 10:01:20;;;;;;;9.63;2.55;;;;;;;19.69;31.69;97851.16;4977071;28;20037;-77
2023/03/30 10:04:09;;;;;;;6.07;2.22;;;;;;;20.53;31.88;97869.28;4977150;28;20033;-77
2023/03/30 10:06:38;;;;;;;4.20;2.10;;;;;;;21.91;30.67;97888.09;4962443;28;20030;-77
2023/03/30 10:09:08;;;;;;;6.10;3.17;;;;;;;22.02;30.59;97878.81;4958535;28;20109;-76
2023/03/30 10:11:47;;;;;;;9.27;3.42;;;;;;;21.50;31.08;97865.03;4977647;28;20026;-77
2023/03/30 10:14:19;;;;;;;5.38;1.70;;;;;;;19.14;34.14;97838.25;4960644;28;20064;-76
2023/03/30 10:16:45;;;;;;;5.07;2.10;;;;;;;19.51;32.78;97830.28;4994185;28;20030;-76
2023/03/30 10:19:20;;;;;;;3.38;1.73;;;;;;;20.22;32.41;97848.78;4977019;28;20089;-76
2023/03/30 10:21:47;;;;;;;10.23;3.83;;;;;;;20.39;31.97;97834.47;4960471;28;20034;-76
2023/03/30 10:24:22;;;;;;;9.57;2.75;;;;;;;21.41;30.56;97846.06;4976980;28;20030;-76
2023/03/30 10:27:02;;;;;;;13.90;4.47;;;;;;;20.95;32.40;97850.63;4976511;28;20041;-75
2023/03/30 10:29:29;;;;;;;4.70;2.47;;;;;;;21.53;31.33;97851.09;4976486;28;20038;-76
2023/03/30 10:32:08;;;;;;;11.57;3.15;;;;;;;21.66;30.69;97831.66;4976437;28;20402;-77
2023/03/30 10:34:50;;;;;;;5.03;1.92;;;;;;;20.11;32.08;97794.63;4960322;28;20405;-76
2023/03/30 10:37:25;;;;;;;3.35;2.08;;;;;;;22.99;29.13;97835.75;4976507;28;20061;-77
2023/03/30 10:39:51;;;;;;;4.45;1.80;;;;;;;23.06;28.51;97806.81;4959247;28;20482;-76
2023/03/30 10:42:20;;;;;;;8.48;2.72;;;;;;;22.48;29.66;97813.03;4960430;28;20085;-75
2023/03/30 10:44:54;;;;;;;20.98;7.50;;;;;;;24.69;27.69;97842.19;4976480;28;20018;-75
2023/03/30 10:47:51;;;;;;;4.85;1.80;;;;;;;23.11;29.34;97798.94;4976574;28;20561;-76
2023/03/30 10:50:34;;;;;;;2.97;2.17;;;;;;;20.68;32.47;97770.91;4963792;28;20045;-75
2023/03/30 10:53:15;;;;;;;3.08;1.77;;;;;;;18.93;33.92;97746.19;4976137;28;20026;-76
2023/03/30 10:56:10;;;;;;;3.13;2.10;;;;;;;18.59;34.36;97739.44;4993632;28;20026;-76
2023/03/30 10:59:06;;;;;;;5.05;1.75;;;;;;;21.02;31.94;97785.56;4942024;28;20038;-77
2023/03/30 11:01:56;;;;;;;2.60;1.70;;;;;;;22.48;30.59;97790.34;4976185;28;20042;-76
2023/03/30 11:04:37;;;;;;;4.72;1.83;;;;;;;23.01;29.71;97777.25;4975931;28;20022;-76
2023/03/30 11:07:04;;;;;;;8.45;2.50;;;;;;;22.60;30.00;97764.50;4975632;28;20482;-76
2023/03/30 11:09:37;;;;;;;2.35;1.60;;;;;;;21.94;31.13;97765.16;4960132;28;20034;-75
2023/03/30 11:12:09;;;;;;;1.70;1.40;;;;;;;22.99;29.35;97754.75;4975585;28;20030;-73
2023/03/30 11:14:46;;;;;;;2.55;1.73;;;;;;;26.01;27.45;97796.38;4959713;28;20034;-76
2023/03/30 11:17:30;;;;;;;2.95;1.48;;;;;;;26.30;26.00;97766.31;4959738;28;20030;-75
2023/03/30 11:19:58;;;;;;;44.38;6.32;;;;;;;25.17;27.03;97742.56;4975577;28;20034;-74
2023/03/30 11:22:40;;;;;;;10.52;1.98;;;;;;;23.68;28.60;97731.63;4976087;28;20026;-76
2023/03/30 11:25:16;;;;;;;4.75;2.33;;;;;;;22.89;29.35;97709.53;4992820;28;20034;-75
2023/03/30 11:28:09;;;;;;;9.75;1.80;;;;;;;23.07;29.48;97724.75;4975766;28;20034;-75
2023/03/30 11:30:36;;;;;;;5.38;2.05;;;;;;;21.50;31.01;97689.97;4970973;28;20030;-74
2023/03/30 11:33:18;;;;;;;3.28;1.48;;;;;;;20.13;32.19;97680.38;4958363;28;20035;-76
2023/03/30 11:35:47;;;;;;;2.55;1.35;;;;;;;19.84;32.53;97672.38;4956165;28;20133;-76
2023/03/30 11:38:38;;;;;;;3.60;1.85;;;;;;;19.89;32.92;97687.22;4940581;28;20384;-76
2023/03/30 11:41:08;;;;;;;4.85;2.08;;;;;;;20.62;32.19;97698.13;4975145;28;20024;-76
2023/03/30 11:43:33;;;;;;;7.00;2.00;;;;;;;20.86;31.87;97691.06;4992668;28;20401;-76
2023/03/30 11:46:07;;;;;;;14.63;2.95;;;;;;;20.94;31.98;97690.31;4975198;28;20026;-76